createdAt,value
2019-05-23T00:00:47.139Z,21.23
2019-05-23T00:03:14.880Z,21.33
2019-05-23T00:05:42.650Z,22.50
2019-05-23T00:08:10.422Z,22.93
2019-05-23T00:10:38.593Z,24.20
2019-05-23T00:13:12.037Z,25.82
2019-05-23T00:15:39.659Z,25.35
2019-05-23T00:18:06.096Z,25.52
2019-05-23T00:20:32.599Z,26.42
2019-05-23T00:22:59.230Z,28.02
2019-05-23T00:25:26.318Z,27.95
2019-05-23T00:27:53.743Z,28.83
2019-05-23T00:30:24.812Z,29.02
2019-05-23T00:32:59.647Z,29.12
2019-05-23T00:35:26.281Z,30.32
2019-05-23T00:37:53.434Z,31.30
2019-05-23T00:40:19.348Z,31.52
2019-05-23T00:42:45.193Z,33.55
2019-05-23T00:45:12.848Z,32.13
2019-05-23T00:47:40.154Z,32.15
2019-05-23T00:50:08.420Z,34.43
2019-05-23T00:52:35.194Z,34.45
2019-05-23T00:55:01.022Z,33.13
2019-05-23T00:57:28.040Z,34.25
2019-05-23T00:59:54.977Z,33.15
2019-05-23T01:02:21.354Z,33.92
2019-05-23T01:04:48.394Z,35.00
2019-05-23T01:07:15.728Z,34.60
2019-05-23T01:09:42.504Z,32.98
2019-05-23T01:12:09.275Z,34.50
2019-05-23T01:14:40.257Z,33.45
2019-05-23T01:17:06.983Z,35.68
2019-05-23T01:19:34.355Z,34.13
2019-05-23T01:22:02.100Z,35.13
2019-05-23T01:24:42.424Z,32.48
2019-05-23T01:27:08.894Z,33.55
2019-05-23T01:29:40.154Z,33.95
2019-05-23T01:32:11.206Z,33.50
2019-05-23T01:34:38.354Z,34.98
2019-05-23T01:37:05.798Z,33.18
2019-05-23T01:39:32.526Z,34.10
2019-05-23T01:41:59.911Z,33.08
2019-05-23T01:44:26.592Z,33.85
2019-05-23T01:46:53.062Z,35.33
2019-05-23T01:49:19.394Z,34.38
2019-05-23T01:51:46.037Z,35.70
2019-05-23T01:54:11.974Z,37.48
2019-05-23T01:56:39.216Z,36.95
2019-05-23T01:59:05.544Z,38.15
2019-05-23T02:01:31.474Z,35.35
2019-05-23T02:03:58.298Z,36.53
2019-05-23T02:06:24.926Z,38.80
2019-05-23T02:08:51.281Z,35.78
2019-05-23T02:11:18.017Z,39.83
2019-05-23T02:13:43.900Z,39.90
2019-05-23T02:16:11.118Z,38.28
2019-05-23T02:18:38.114Z,37.00
2019-05-23T02:21:04.046Z,36.70
2019-05-23T02:23:30.314Z,39.10
2019-05-23T02:25:57.622Z,38.98
2019-05-23T02:28:25.157Z,38.15
2019-05-23T02:30:51.640Z,37.53
2019-05-23T02:33:18.759Z,38.85
2019-05-23T02:35:45.699Z,38.60
2019-05-23T02:38:16.792Z,39.30
2019-05-23T02:40:53.648Z,40.70
2019-05-23T02:43:24.270Z,38.13
2019-05-23T02:45:52.366Z,39.85
2019-05-23T02:48:35.813Z,38.08
2019-05-23T02:51:04.643Z,41.58
2019-05-23T02:53:31.985Z,38.50
2019-05-23T02:55:59.465Z,42.30
2019-05-23T02:58:28.193Z,41.20
2019-05-23T03:01:03.702Z,41.63
2019-05-23T03:03:31.448Z,41.83
2019-05-23T03:05:59.222Z,41.95
2019-05-23T03:08:26.667Z,39.18
2019-05-23T03:10:57.434Z,40.25
2019-05-23T03:13:25.689Z,41.02
2019-05-23T03:15:51.689Z,42.43
2019-05-23T03:18:18.410Z,41.50
2019-05-23T03:20:44.238Z,40.70
2019-05-23T03:23:12.110Z,37.45
2019-05-23T03:25:40.034Z,33.98
2019-05-23T03:28:07.223Z,32.42
2019-05-23T03:30:38.033Z,33.50
2019-05-23T03:33:06.034Z,32.55
2019-05-23T03:35:33.809Z,33.78
2019-05-23T03:38:00.048Z,34.53
2019-05-23T03:40:27.396Z,34.43
2019-05-23T03:42:54.479Z,33.00
2019-05-23T03:45:22.580Z,33.15
2019-05-23T03:47:48.819Z,35.15
2019-05-23T03:50:16.378Z,35.40
2019-05-23T03:52:43.727Z,33.42
2019-05-23T03:55:10.503Z,33.40
2019-05-23T03:57:37.827Z,34.00
2019-05-23T04:00:07.505Z,35.30
2019-05-23T04:02:34.166Z,36.83
2019-05-23T04:05:00.000Z,32.33
2019-05-23T04:07:25.903Z,32.85
2019-05-23T04:09:52.955Z,33.10
2019-05-23T04:12:19.489Z,30.88
2019-05-23T04:14:45.726Z,33.33
2019-05-23T04:17:11.604Z,32.78
2019-05-23T04:19:38.592Z,31.27
2019-05-23T04:22:06.363Z,30.57
2019-05-23T04:24:32.244Z,30.05
2019-05-23T04:26:59.331Z,28.70
2019-05-23T04:29:25.260Z,26.93
2019-05-23T04:32:06.897Z,30.10
2019-05-23T04:34:19.979Z,26.23
2019-05-23T04:36:46.209Z,25.08
2019-05-23T04:39:12.894Z,24.95
2019-05-23T04:41:38.772Z,21.95
2019-05-23T04:44:05.870Z,21.25
2019-05-23T04:46:32.405Z,19.20
2019-05-23T04:48:58.298Z,19.02
2019-05-23T04:51:26.031Z,16.97
2019-05-23T04:53:53.184Z,16.15
2019-05-23T04:56:19.324Z,15.93
2019-05-23T04:58:45.526Z,17.07
2019-05-23T05:01:11.855Z,17.17
2019-05-23T05:03:37.974Z,15.28
2019-05-23T05:06:05.450Z,15.98
2019-05-23T05:08:31.670Z,14.90
2019-05-23T05:10:57.473Z,14.13
2019-05-23T05:13:23.743Z,14.30
2019-05-23T05:15:50.094Z,14.98
2019-05-23T05:18:16.420Z,14.03
2019-05-23T05:20:42.340Z,14.03
2019-05-23T05:23:08.174Z,14.50
2019-05-23T05:25:34.652Z,13.48
2019-05-23T05:28:00.502Z,13.85
2019-05-23T05:30:26.434Z,13.40
2019-05-23T05:32:52.720Z,13.70
2019-05-23T05:35:18.695Z,13.50
2019-05-23T05:37:44.563Z,13.98
2019-05-23T05:40:11.026Z,14.40
2019-05-23T05:42:37.643Z,13.80
2019-05-23T05:45:05.690Z,14.30
2019-05-23T05:47:31.555Z,13.70
2019-05-23T05:50:19.719Z,13.83
2019-05-23T05:52:48.318Z,15.65
2019-05-23T05:55:14.593Z,15.23
2019-05-23T05:57:40.809Z,15.35
2019-05-23T06:00:12.646Z,14.63
2019-05-23T06:02:36.875Z,14.93
2019-05-23T06:05:04.434Z,14.00
2019-05-23T06:07:32.165Z,15.75
2019-05-23T06:09:59.344Z,15.65
2019-05-23T06:12:26.131Z,14.85
2019-05-23T06:14:51.968Z,15.15
2019-05-23T06:17:18.432Z,14.90
2019-05-23T06:19:45.551Z,15.38
2019-05-23T06:22:11.786Z,15.78
2019-05-23T06:24:47.354Z,15.80
2019-05-23T06:27:08.157Z,16.40
2019-05-23T06:29:34.896Z,15.78
2019-05-23T06:32:00.833Z,16.42
2019-05-23T06:34:27.263Z,16.30
2019-05-23T06:36:53.570Z,16.77
2019-05-23T06:39:19.926Z,16.57
2019-05-23T06:41:46.354Z,16.00
2019-05-23T06:44:13.189Z,16.52
2019-05-23T06:46:40.061Z,15.00
2019-05-23T06:49:05.898Z,17.07
2019-05-23T06:51:32.494Z,16.75
2019-05-23T06:53:59.275Z,16.35
2019-05-23T06:56:26.192Z,16.55
2019-05-23T06:58:52.427Z,16.82
2019-05-23T07:01:18.638Z,17.27
2019-05-23T07:03:44.515Z,17.02
2019-05-23T07:06:10.954Z,18.17
2019-05-23T07:08:36.833Z,17.40
2019-05-23T07:11:02.674Z,17.60
2019-05-23T07:13:29.508Z,18.82
2019-05-23T07:15:55.379Z,18.52
2019-05-23T07:18:21.207Z,17.95
2019-05-23T07:20:47.699Z,18.52
2019-05-23T07:23:13.565Z,18.37
2019-05-23T07:25:39.714Z,18.02
2019-05-23T07:28:05.946Z,17.32
2019-05-23T07:30:31.818Z,18.10
2019-05-23T07:32:58.091Z,18.27
2019-05-23T07:35:25.534Z,19.45
2019-05-23T07:37:51.371Z,18.57
2019-05-23T07:40:17.900Z,17.87
2019-05-23T07:42:44.668Z,18.42
2019-05-23T07:45:15.682Z,20.32
2019-05-23T07:47:41.575Z,19.55
2019-05-23T07:50:07.407Z,20.17
2019-05-23T07:52:33.682Z,19.12
2019-05-23T07:55:01.844Z,18.65
2019-05-23T07:57:27.651Z,20.00
2019-05-23T07:59:54.847Z,19.15
2019-05-23T08:02:25.857Z,19.40
2019-05-23T08:04:51.056Z,19.12
2019-05-23T08:07:19.117Z,18.60
2019-05-23T08:09:45.010Z,18.20
2019-05-23T08:12:10.836Z,18.37
2019-05-23T08:14:36.987Z,17.00
2019-05-23T08:17:04.960Z,15.48
2019-05-23T08:19:48.190Z,17.02
2019-05-23T08:21:59.777Z,16.70
2019-05-23T08:24:26.557Z,16.52
2019-05-23T08:26:53.192Z,18.77
2019-05-23T08:29:26.974Z,17.35
2019-05-23T08:31:47.152Z,14.30
2019-05-23T08:34:13.490Z,15.13
2019-05-23T08:36:40.442Z,15.32
2019-05-23T08:39:08.016Z,14.90
2019-05-23T08:41:34.514Z,15.45
2019-05-23T08:44:00.886Z,13.78
2019-05-23T08:46:27.948Z,13.53
2019-05-23T08:48:54.180Z,13.38
2019-05-23T08:51:20.048Z,13.98
2019-05-23T08:53:46.095Z,15.45
2019-05-23T08:56:18.823Z,13.30
2019-05-23T08:58:39.802Z,13.48
2019-05-23T09:01:06.543Z,15.25
2019-05-23T09:03:32.465Z,12.73
2019-05-23T09:05:59.442Z,14.63
2019-05-23T09:08:27.540Z,12.80
2019-05-23T09:10:53.894Z,12.13
2019-05-23T09:13:20.160Z,13.83
2019-05-23T09:15:46.008Z,11.80
2019-05-23T09:18:11.966Z,12.53
2019-05-23T09:20:38.416Z,10.58
2019-05-23T09:23:04.593Z,13.03
2019-05-23T09:25:30.581Z,11.50
2019-05-23T09:27:57.377Z,12.60
2019-05-23T09:30:24.611Z,11.38
2019-05-23T09:32:51.117Z,11.65
2019-05-23T09:35:21.420Z,11.28
2019-05-23T09:37:45.983Z,11.20
2019-05-23T09:40:12.225Z,11.22
2019-05-23T09:42:38.086Z,9.75
2019-05-23T09:45:04.899Z,10.03
2019-05-23T09:47:31.307Z,10.90
2019-05-23T09:49:57.530Z,11.35
2019-05-23T09:52:24.996Z,10.75
2019-05-23T09:54:51.237Z,10.75
2019-05-23T09:57:17.088Z,9.33
2019-05-23T09:59:42.928Z,11.57
2019-05-23T10:02:09.498Z,10.65
2019-05-23T10:04:35.356Z,10.75
2019-05-23T10:07:01.959Z,9.98
2019-05-23T10:09:27.805Z,9.75
2019-05-23T10:11:54.142Z,9.50
2019-05-23T10:14:21.928Z,9.35
2019-05-23T10:16:47.767Z,10.88
2019-05-23T10:19:13.616Z,9.75
2019-05-23T10:21:39.930Z,11.38
2019-05-23T10:24:06.270Z,9.85
2019-05-23T10:26:32.117Z,11.08
2019-05-23T10:28:58.696Z,9.85
2019-05-23T10:31:26.073Z,10.75
2019-05-23T10:33:52.454Z,11.22
2019-05-23T10:36:18.615Z,10.18
2019-05-23T10:38:45.173Z,9.50
2019-05-23T10:41:11.035Z,11.10
2019-05-23T10:43:37.218Z,11.78
2019-05-23T10:46:03.080Z,11.48
2019-05-23T10:48:30.210Z,10.25
2019-05-23T10:50:56.454Z,10.32
2019-05-23T10:53:25.164Z,9.48
2019-05-23T10:55:51.070Z,10.72
2019-05-23T10:58:16.907Z,9.23
2019-05-23T11:00:45.508Z,8.13
2019-05-23T11:03:15.780Z,8.08
2019-05-23T11:05:43.285Z,7.87
2019-05-23T11:08:14.591Z,8.18
2019-05-23T11:10:45.916Z,7.87
2019-05-23T11:13:12.170Z,8.58
2019-05-23T11:15:38.812Z,9.93
2019-05-23T11:18:06.643Z,9.23
2019-05-23T11:20:35.865Z,10.03
2019-05-23T11:23:03.500Z,9.38
2019-05-23T11:25:28.464Z,8.23
2019-05-23T11:27:54.751Z,7.65
2019-05-23T11:30:27.105Z,6.83
2019-05-23T11:32:53.005Z,6.40
2019-05-23T11:35:19.166Z,6.42
2019-05-23T11:37:45.392Z,5.53
2019-05-23T11:40:11.263Z,5.37
2019-05-23T11:42:37.447Z,6.75
2019-05-23T11:45:04.476Z,6.37
2019-05-23T11:47:32.115Z,6.47
2019-05-23T11:49:58.602Z,5.33
2019-05-23T11:52:24.978Z,4.58
2019-05-23T11:54:51.858Z,5.53
2019-05-23T11:57:18.497Z,5.30
2019-05-23T11:59:44.338Z,6.30
2019-05-23T12:02:12.638Z,5.47
2019-05-23T12:04:39.811Z,5.60
2019-05-23T12:07:10.159Z,5.20
2019-05-23T12:09:36.617Z,6.15
2019-05-23T12:12:03.664Z,5.60
2019-05-23T12:14:30.307Z,4.97
2019-05-23T12:16:56.251Z,4.62
2019-05-23T12:19:22.912Z,5.08
2019-05-23T12:21:49.398Z,4.53
2019-05-23T12:24:15.814Z,4.65
2019-05-23T12:26:42.064Z,5.42
2019-05-23T12:29:08.065Z,5.40
2019-05-23T12:31:34.310Z,6.17
2019-05-23T12:34:00.142Z,6.70
2019-05-23T12:36:27.183Z,5.97
2019-05-23T12:38:53.486Z,5.05
2019-05-23T12:41:19.366Z,4.53
2019-05-23T12:43:45.199Z,4.35
2019-05-23T12:46:11.056Z,4.10
2019-05-23T12:48:38.802Z,4.03
2019-05-23T12:51:09.229Z,3.50
2019-05-23T12:53:35.713Z,4.92
2019-05-23T12:56:01.831Z,4.72
2019-05-23T12:58:28.738Z,4.42
2019-05-23T13:00:56.488Z,4.67
2019-05-23T13:03:23.115Z,4.92
2019-05-23T13:05:49.498Z,4.03
2019-05-23T13:08:16.029Z,3.95
2019-05-23T13:10:42.687Z,4.45
2019-05-23T13:13:09.233Z,4.50
2019-05-23T13:15:35.833Z,4.33
2019-05-23T13:18:01.924Z,4.42
2019-05-23T13:20:28.503Z,4.10
2019-05-23T13:22:54.367Z,2.98
2019-05-23T13:25:20.873Z,3.37
2019-05-23T13:27:47.436Z,3.30
2019-05-23T13:30:13.468Z,3.45
2019-05-23T13:32:39.638Z,4.45
2019-05-23T13:35:06.522Z,3.75
2019-05-23T13:37:32.902Z,3.30
2019-05-23T13:39:58.884Z,3.40
2019-05-23T13:42:24.743Z,3.45
2019-05-23T13:44:51.220Z,3.05
2019-05-23T13:47:17.101Z,2.60
2019-05-23T13:49:43.261Z,2.62
2019-05-23T13:52:09.713Z,2.95
2019-05-23T13:54:36.980Z,3.15
2019-05-23T13:57:03.883Z,2.60
2019-05-23T13:59:30.054Z,2.70
2019-05-23T14:01:56.807Z,2.25
2019-05-23T14:04:23.554Z,2.17
2019-05-23T14:06:49.551Z,2.83
2019-05-23T14:09:17.107Z,2.40
2019-05-23T14:11:43.325Z,2.92
2019-05-23T14:14:10.513Z,2.77
2019-05-23T14:16:39.487Z,2.65
2019-05-23T14:19:06.537Z,2.58
2019-05-23T14:21:34.349Z,2.45
2019-05-23T14:24:01.440Z,2.70
2019-05-23T14:26:29.188Z,2.30
2019-05-23T14:28:55.024Z,2.42
2019-05-23T14:31:22.427Z,2.62
2019-05-23T14:33:50.142Z,2.37
2019-05-23T14:36:21.265Z,2.17
2019-05-23T14:38:48.834Z,2.85
2019-05-23T14:41:14.666Z,2.87
2019-05-23T14:43:41.189Z,2.55
2019-05-23T14:46:08.957Z,2.45
2019-05-23T14:48:48.830Z,2.30
2019-05-23T14:51:25.698Z,2.52
2019-05-23T14:53:53.631Z,2.12
2019-05-23T14:56:21.395Z,2.30
2019-05-23T14:58:47.841Z,2.35
2019-05-23T15:01:14.684Z,2.15
2019-05-23T15:03:40.918Z,2.70
2019-05-23T15:06:06.803Z,2.15
2019-05-23T15:08:49.550Z,2.20
2019-05-23T15:11:00.983Z,2.05
2019-05-23T15:13:26.842Z,2.60
2019-05-23T15:15:53.296Z,2.62
2019-05-23T15:18:19.166Z,1.90
2019-05-23T15:20:45.005Z,2.58
2019-05-23T15:23:10.874Z,2.10
2019-05-23T15:25:36.753Z,2.30
2019-05-23T15:28:03.789Z,1.98
2019-05-23T15:30:30.259Z,2.10
2019-05-23T15:32:56.121Z,2.50
2019-05-23T15:35:22.305Z,1.95
2019-05-23T15:37:48.140Z,2.40
2019-05-23T15:40:14.770Z,2.15
2019-05-23T15:42:40.998Z,2.45
2019-05-23T15:45:06.892Z,2.22
2019-05-23T15:47:35.197Z,2.10
2019-05-23T15:50:06.274Z,2.52
2019-05-23T15:52:38.202Z,1.92
2019-05-23T15:55:07.298Z,2.00
2019-05-23T15:57:40.719Z,2.17
2019-05-23T16:00:14.909Z,2.00
2019-05-23T16:02:42.573Z,2.20
2019-05-23T16:05:10.616Z,2.40
2019-05-23T16:07:37.082Z,2.20
2019-05-23T16:10:07.337Z,2.10
2019-05-23T16:12:33.866Z,2.05
2019-05-23T16:15:00.110Z,2.55
2019-05-23T16:17:26.475Z,1.95
2019-05-23T16:19:52.317Z,2.42
2019-05-23T16:22:18.767Z,1.95
2019-05-23T16:24:45.403Z,2.12
2019-05-23T16:27:11.740Z,2.00
2019-05-23T16:29:38.694Z,1.92
2019-05-23T16:32:04.909Z,2.20
2019-05-23T16:34:31.280Z,1.92
2019-05-23T16:36:57.136Z,1.70
2019-05-23T16:39:23.254Z,1.90
2019-05-23T16:41:49.092Z,2.10
2019-05-23T16:44:15.238Z,1.98
2019-05-23T16:46:41.568Z,1.92
2019-05-23T16:49:07.387Z,1.70
2019-05-23T16:51:33.363Z,1.70
2019-05-23T16:53:59.894Z,1.72
2019-05-23T16:56:33.606Z,1.90
2019-05-23T16:59:10.117Z,1.75
2019-05-23T17:01:55.605Z,1.57
2019-05-23T17:04:13.486Z,1.70
2019-05-23T17:06:41.463Z,1.40
2019-05-23T17:09:26.330Z,1.47
2019-05-23T17:12:09.257Z,1.60
2019-05-23T17:14:40.941Z,1.40
2019-05-23T17:17:43.501Z,1.30
2019-05-23T17:19:55.280Z,1.45
2019-05-23T17:22:23.598Z,1.45
2019-05-23T17:25:08.098Z,1.50
2019-05-23T17:27:35.776Z,1.40
2019-05-23T17:30:11.138Z,1.70
2019-05-23T17:32:37.594Z,1.80
2019-05-23T17:35:21.996Z,1.50
2019-05-23T17:37:48.295Z,1.80
2019-05-23T17:40:24.484Z,1.70
2019-05-23T17:42:41.802Z,1.65
2019-05-23T17:45:07.678Z,1.57
2019-05-23T17:47:34.330Z,1.80
2019-05-23T17:50:00.184Z,1.50
2019-05-23T17:52:26.822Z,1.60
2019-05-23T17:54:53.317Z,1.25
2019-05-23T17:57:19.254Z,1.65
2019-05-23T17:59:45.083Z,1.57
2019-05-23T18:02:11.754Z,1.42
2019-05-23T18:04:38.245Z,1.60
2019-05-23T18:07:06.260Z,1.80
2019-05-23T18:09:33.156Z,1.42
2019-05-23T18:11:59.390Z,1.95
2019-05-23T18:14:25.319Z,2.30
2019-05-23T18:16:51.842Z,1.90
2019-05-23T18:19:18.203Z,2.17
2019-05-23T18:21:44.424Z,2.27
2019-05-23T18:24:11.770Z,1.95
2019-05-23T18:26:38.141Z,2.30
2019-05-23T18:29:04.577Z,2.00
2019-05-23T18:31:32.804Z,2.45
2019-05-23T18:33:59.081Z,2.37
2019-05-23T18:36:25.818Z,2.60
2019-05-23T18:38:52.373Z,2.50
2019-05-23T18:41:18.630Z,2.30
2019-05-23T18:43:44.977Z,1.98
2019-05-23T18:46:36.740Z,2.33
2019-05-23T18:49:02.323Z,2.25
2019-05-23T18:51:28.275Z,2.37
2019-05-23T18:53:54.481Z,2.40
2019-05-23T18:56:21.086Z,2.08
2019-05-23T18:58:46.890Z,2.15
2019-05-23T19:01:15.066Z,2.17
2019-05-23T19:03:41.751Z,2.30
2019-05-23T19:06:07.638Z,2.37
2019-05-23T19:08:34.280Z,2.30
2019-05-23T19:11:00.930Z,2.70
2019-05-23T19:13:27.950Z,2.50
2019-05-23T19:15:54.580Z,2.52
2019-05-23T19:18:22.843Z,2.70
2019-05-23T19:20:48.802Z,2.27
2019-05-23T19:23:15.837Z,2.67
2019-05-23T19:25:43.249Z,2.52
2019-05-23T19:28:10.746Z,2.02
2019-05-23T19:30:37.386Z,2.55
2019-05-23T19:33:03.659Z,2.55
2019-05-23T19:35:30.170Z,2.75
2019-05-23T19:37:55.992Z,2.55
2019-05-23T19:40:21.892Z,2.55
2019-05-23T19:42:48.105Z,2.75
2019-05-23T19:45:13.974Z,2.80
2019-05-23T19:47:40.497Z,2.60
2019-05-23T19:50:06.322Z,2.70
2019-05-23T19:52:32.190Z,2.60
2019-05-23T19:54:58.356Z,2.50
2019-05-23T19:57:25.916Z,3.05
2019-05-23T19:59:52.861Z,2.87
2019-05-23T20:02:20.506Z,2.67
2019-05-23T20:04:48.237Z,2.65
2019-05-23T20:07:15.841Z,2.45
2019-05-23T20:09:41.932Z,2.37
2019-05-23T20:12:08.272Z,3.00
2019-05-23T20:14:34.142Z,3.42
2019-05-23T20:17:00.821Z,3.02
2019-05-23T20:19:32.377Z,3.90
2019-05-23T20:21:58.213Z,3.80
2019-05-23T20:24:26.013Z,3.85
2019-05-23T20:26:52.036Z,4.03
2019-05-23T20:29:18.530Z,4.35
2019-05-23T20:31:49.008Z,4.12
2019-05-23T20:34:18.645Z,3.90
2019-05-23T20:36:45.404Z,3.80
2019-05-23T20:39:12.537Z,4.33
2019-05-23T20:41:39.258Z,4.30
2019-05-23T20:44:05.187Z,4.10
2019-05-23T20:46:31.846Z,3.77
2019-05-23T20:48:59.678Z,4.05
2019-05-23T20:51:27.030Z,3.98
2019-05-23T20:53:52.905Z,4.50
2019-05-23T20:56:21.546Z,4.60
2019-05-23T20:58:48.275Z,5.15
2019-05-23T21:01:19.770Z,4.47
2019-05-23T21:03:46.652Z,5.30
2019-05-23T21:06:16.780Z,4.83
2019-05-23T21:08:47.130Z,4.53
2019-05-23T21:11:14.981Z,4.15
2019-05-23T21:13:41.414Z,4.35
2019-05-23T21:16:08.234Z,3.95
2019-05-23T21:18:34.683Z,3.72
2019-05-23T21:21:00.922Z,3.95
2019-05-23T21:23:26.782Z,3.90
2019-05-23T21:25:57.415Z,3.65
2019-05-23T21:28:23.251Z,3.45
2019-05-23T21:30:49.516Z,3.77
2019-05-23T21:33:15.751Z,4.33
2019-05-23T21:35:41.692Z,4.40
2019-05-23T21:38:08.614Z,4.25
2019-05-23T21:40:36.390Z,4.08
2019-05-23T21:43:02.762Z,4.20
2019-05-23T21:45:29.085Z,5.10
2019-05-23T21:47:54.917Z,3.75
2019-05-23T21:50:20.778Z,4.33
2019-05-23T21:52:46.651Z,4.15
2019-05-23T21:55:14.451Z,4.75
2019-05-23T21:57:40.283Z,4.42
2019-05-23T22:00:07.695Z,4.15
2019-05-23T22:02:34.472Z,4.12
2019-05-23T22:05:02.424Z,3.72
2019-05-23T22:07:28.988Z,3.65
2019-05-23T22:09:55.486Z,3.40
2019-05-23T22:12:23.854Z,3.47
2019-05-23T22:14:49.833Z,4.10
2019-05-23T22:17:16.670Z,3.65
2019-05-23T22:19:42.542Z,4.17
2019-05-23T22:22:09.064Z,3.62
2019-05-23T22:24:34.838Z,4.42
2019-05-23T22:27:00.724Z,3.70
2019-05-23T22:29:27.247Z,4.08
2019-05-23T22:31:56.422Z,3.65
2019-05-23T22:34:27.117Z,4.00
2019-05-23T22:36:54.026Z,3.80
2019-05-23T22:39:20.349Z,3.95
2019-05-23T22:41:46.229Z,3.62
2019-05-23T22:44:12.583Z,3.90
2019-05-23T22:46:39.178Z,3.72
2019-05-23T22:49:04.987Z,4.00
2019-05-23T22:51:30.858Z,4.00
2019-05-23T22:53:57.317Z,3.80
2019-05-23T22:56:23.596Z,3.98
2019-05-23T22:58:49.427Z,4.15
2019-05-23T23:01:15.785Z,4.50
2019-05-23T23:03:42.251Z,4.20
2019-05-23T23:06:08.886Z,4.55
2019-05-23T23:08:35.526Z,3.87
2019-05-23T23:11:01.800Z,4.12
2019-05-23T23:13:38.175Z,3.65
2019-05-23T23:15:56.445Z,4.10
2019-05-23T23:18:22.282Z,4.47
2019-05-23T23:20:48.466Z,4.15
2019-05-23T23:23:14.329Z,3.60
2019-05-23T23:25:40.157Z,3.60
2019-05-23T23:28:06.030Z,3.70
2019-05-23T23:30:42.712Z,4.00
2019-05-23T23:33:08.542Z,4.25
2019-05-23T23:35:34.857Z,4.33
2019-05-23T23:38:01.125Z,4.37
2019-05-23T23:40:26.988Z,4.00
2019-05-23T23:42:52.898Z,4.17
2019-05-23T23:45:37.086Z,4.65
2019-05-23T23:48:21.378Z,4.25
2019-05-23T23:51:05.896Z,4.72
2019-05-23T23:53:50.092Z,4.37
2019-05-23T23:56:34.784Z,4.10
2019-05-23T23:59:01.032Z,4.45
